Time;durP1;ratioP1;P1;durP2;ratioP2;P2;SDS_P1;SDS_P2;PMS_P1;PMS_P2;Temp;Humidity;BMP_temperature;BMP_pressure;BME280_temperature;BME280_humidity;BME280_pressure;Samples;Min_cycle;Max_cycle;Signal;HPM_P1;HPM_P2
2023/04/27 00:00:25;;;;;;;6.63;2.80;;;;;;;;;;4953866;29;20023;-71
2023/04/27 00:02:52;;;;;;;5.30;2.33;;;;;;;;;;4954633;29;20019;-70
2023/04/27 00:05:18;;;;;;;3.08;1.95;;;;;;;;;;4954138;29;20520;-70
2023/04/27 00:07:44;;;;;;;4.07;1.98;;;;;;;;;;4953981;29;20035;-72
2023/04/27 00:10:10;;;;;;;6.43;2.55;;;;;;;;;;4955375;29;20095;-71
2023/04/27 00:12:36;;;;;;;3.72;2.50;;;;;;;;;;4953418;29;20035;-72
2023/04/27 00:15:02;;;;;;;3.67;2.42;;;;;;;;;;4955034;29;20373;-71
2023/04/27 00:17:28;;;;;;;4.18;2.63;;;;;;;;;;4953291;29;20027;-72
2023/04/27 00:19:54;;;;;;;6.10;2.90;;;;;;;;;;4954608;29;20031;-71
2023/04/27 00:22:20;;;;;;;6.18;2.45;;;;;;;;;;4953638;29;20034;-72
2023/04/27 00:24:46;;;;;;;4.40;2.70;;;;;;;;;;4954046;29;20031;-72
2023/04/27 00:27:12;;;;;;;5.63;2.42;;;;;;;;;;4953681;29;20031;-71
2023/04/27 00:29:41;;;;;;;5.65;2.30;;;;;;;;;;4952505;29;20035;-71
2023/04/27 00:32:08;;;;;;;6.00;2.70;;;;;;;;;;4954394;29;20483;-71
2023/04/27 00:34:34;;;;;;;6.60;2.70;;;;;;;;;;4953359;29;20108;-72
2023/04/27 00:37:00;;;;;;;3.80;2.30;;;;;;;;;;4954297;29;20114;-71
2023/04/27 00:39:26;;;;;;;6.53;3.00;;;;;;;;;;4953541;29;20034;-71
2023/04/27 00:41:52;;;;;;;4.63;2.88;;;;;;;;;;4952858;28;20027;-71
2023/04/27 00:44:24;;;;;;;6.28;3.30;;;;;;;;;;4953553;29;20028;-71
2023/04/27 00:46:51;;;;;;;6.53;2.92;;;;;;;;;;4953658;29;20033;-70
2023/04/27 00:49:17;;;;;;;6.20;2.80;;;;;;;;;;4953450;29;20031;-73
2023/04/27 00:51:43;;;;;;;5.30;2.67;;;;;;;;;;4952646;29;20079;-70
2023/04/27 00:54:09;;;;;;;7.78;2.75;;;;;;;;;;4954043;29;20035;-70
2023/04/27 00:56:36;;;;;;;3.67;2.42;;;;;;;;;;4952524;29;20029;-70
2023/04/27 00:59:02;;;;;;;5.65;2.80;;;;;;;;;;4954112;29;20576;-71
2023/04/27 01:01:29;;;;;;;6.47;3.05;;;;;;;;;;4952708;29;20020;-71
2023/04/27 01:03:55;;;;;;;5.07;2.60;;;;;;;;;;4953309;29;20040;-71
2023/04/27 01:06:21;;;;;;;7.38;2.70;;;;;;;;;;4952326;29;20381;-71
2023/04/27 01:08:47;;;;;;;4.50;2.72;;;;;;;;;;4954006;29;20027;-70
2023/04/27 01:11:14;;;;;;;4.63;2.58;;;;;;;;;;4952844;29;20090;-72
2023/04/27 01:13:40;;;;;;;6.13;2.80;;;;;;;;;;4953545;29;20023;-72
2023/04/27 01:16:06;;;;;;;5.50;2.78;;;;;;;;;;4953570;29;20027;-72
2023/04/27 01:18:32;;;;;;;3.60;2.80;;;;;;;;;;4952294;29;20182;-72
2023/04/27 01:20:59;;;;;;;5.95;2.65;;;;;;;;;;4953221;29;20031;-72
2023/04/27 01:23:25;;;;;;;7.40;2.90;;;;;;;;;;4952491;29;20408;-73
2023/04/27 01:25:51;;;;;;;8.43;2.80;;;;;;;;;;4952851;29;20027;-72
2023/04/27 01:28:17;;;;;;;5.85;2.88;;;;;;;;;;4952285;29;20511;-75
2023/04/27 01:30:43;;;;;;;4.00;2.67;;;;;;;;;;4951770;29;20420;-72
2023/04/27 01:33:09;;;;;;;7.32;2.83;;;;;;;;;;4953109;29;20038;-72
2023/04/27 01:35:35;;;;;;;6.38;3.53;;;;;;;;;;4952643;29;20031;-73
2023/04/27 01:38:01;;;;;;;7.03;2.90;;;;;;;;;;4952620;29;20058;-72
2023/04/27 01:40:28;;;;;;;7.32;2.83;;;;;;;;;;4952579;29;20059;-72
2023/04/27 01:42:54;;;;;;;8.88;3.10;;;;;;;;;;4952628;29;20066;-72
2023/04/27 01:45:20;;;;;;;4.05;2.63;;;;;;;;;;4952355;29;20488;-73
2023/04/27 01:47:46;;;;;;;6.90;3.40;;;;;;;;;;4952652;29;20104;-72
2023/04/27 01:50:12;;;;;;;6.20;3.13;;;;;;;;;;4952729;29;20035;-74
2023/04/27 01:52:38;;;;;;;9.13;3.08;;;;;;;;;;4951821;28;20031;-72
2023/04/27 01:55:05;;;;;;;10.43;3.50;;;;;;;;;;4952635;29;20449;-71
2023/04/27 01:57:31;;;;;;;5.20;3.10;;;;;;;;;;4951209;29;20437;-72
2023/04/27 01:59:57;;;;;;;8.13;3.30;;;;;;;;;;4947910;29;20038;-72
2023/04/27 02:02:22;;;;;;;7.97;4.18;;;7.30;99.90;;;;;;4951587;29;20059;-72
2023/04/27 02:04:48;;;;;;;6.03;3.60;;;7.20;99.90;;;;;;4952513;29;20074;-71
2023/04/27 02:07:13;;;;;;;7.85;3.30;;;7.10;99.90;;;;;;4952113;29;20445;-75
2023/04/27 02:09:39;;;;;;;9.05;3.47;;;7.00;99.90;;;;;;4952166;29;20032;-72
2023/04/27 02:12:05;;;;;;;4.63;3.30;;;7.00;99.90;;;;;;4952169;29;20036;-71
2023/04/27 02:14:30;;;;;;;7.32;4.00;;;7.00;99.90;;;;;;4952551;29;20476;-71
2023/04/27 02:16:56;;;;;;;7.93;3.05;;;6.90;99.90;;;;;;4951679;29;20542;-71
2023/04/27 02:19:21;;;;;;;6.13;3.20;;;6.90;99.90;;;;;;4952180;29;20035;-71
2023/04/27 02:21:47;;;;;;;4.25;3.13;;;6.90;99.90;;;;;;4952022;29;20106;-71
2023/04/27 02:24:12;;;;;;;11.07;3.97;;;6.90;99.90;;;;;;4952559;29;20465;-74
2023/04/27 02:26:38;;;;;;;7.72;3.60;;;6.80;99.90;;;;;;4951479;29;20044;-71
2023/04/27 02:29:04;;;;;;;8.75;4.25;;;6.80;99.90;;;;;;4951975;29;20417;-71
2023/04/27 02:31:29;;;;;;;7.47;3.78;;;6.80;99.90;;;;;;4950893;29;20043;-71
2023/04/27 02:33:55;;;;;;;6.65;4.13;;;6.90;99.90;;;;;;4935142;29;20473;-72
2023/04/27 02:36:20;;;;;;;9.13;3.97;;;6.90;99.90;;;;;;4946747;29;20051;-72
2023/04/27 02:38:46;;;;;;;8.73;3.95;;;6.90;99.90;;;;;;4945803;29;20090;-71
2023/04/27 02:41:12;;;;;;;6.97;3.70;;;6.90;99.90;;;;;;4951269;29;20035;-74
2023/04/27 02:43:37;;;;;;;7.40;3.35;;;6.90;99.90;;;;;;4951441;29;20042;-71
2023/04/27 02:46:03;;;;;;;7.22;4.05;;;6.80;99.90;;;;;;4952528;29;20039;-71
2023/04/27 02:48:32;;;;;;;7.68;3.53;;;6.80;99.90;;;;;;4951335;29;20051;-71
2023/04/27 02:50:58;;;;;;;6.97;3.70;;;6.90;99.90;;;;;;4952168;29;20023;-71
2023/04/27 02:53:23;;;;;;;5.38;3.85;;;6.90;99.90;;;;;;4951498;29;20077;-71
2023/04/27 02:55:49;;;;;;;9.07;4.05;;;6.90;99.90;;;;;;4952061;29;20055;-71
2023/04/27 02:58:15;;;;;;;9.50;4.68;;;6.90;99.90;;;;;;4951323;29;20030;-73
2023/04/27 03:00:42;;;;;;;8.00;4.10;;;6.90;99.90;;;;;;4952382;29;20114;-71
2023/04/27 03:03:08;;;;;;;7.95;4.38;;;6.90;99.90;;;;;;4951550;29;20184;-71
2023/04/27 03:05:35;;;;;;;7.32;3.90;;;6.90;99.90;;;;;;4954371;28;20574;-71
2023/04/27 03:08:00;;;;;;;9.80;3.95;;;6.90;99.90;;;;;;4955146;29;20623;-73
2023/04/27 03:10:26;;;;;;;4.88;3.15;;;6.90;99.90;;;;;;4952318;29;20127;-73
2023/04/27 03:12:51;;;;;;;7.78;3.80;;;6.90;99.90;;;;;;4952633;29;20154;-72
2023/04/27 03:15:17;;;;;;;7.03;4.47;;;6.90;99.90;;;;;;4938110;29;20035;-72
2023/04/27 03:17:43;;;;;;;6.35;3.75;;;6.80;99.90;;;;;;4955199;29;20027;-73
2023/04/27 03:20:09;;;;;;;6.47;3.58;;;6.90;99.90;;;;;;4938465;29;20034;-74
2023/04/27 03:22:35;;;;;;;6.43;3.80;;;6.80;99.90;;;;;;4954451;29;20031;-73
2023/04/27 03:25:02;;;;;;;8.05;4.13;;;6.80;99.90;;;;;;4938742;29;20043;-72
2023/04/27 03:27:28;;;;;;;11.00;5.07;;;6.80;99.90;;;;;;4954441;29;20094;-71
2023/04/27 03:29:53;;;;;;;10.80;4.40;;;6.80;99.90;;;;;;4955297;29;20039;-72
2023/04/27 03:32:19;;;;;;;10.15;4.32;;;6.90;99.90;;;;;;4950435;29;20031;-72
2023/04/27 03:34:45;;;;;;;6.68;4.22;;;6.90;99.90;;;;;;4955766;29;20027;-72
2023/04/27 03:37:11;;;;;;;7.97;5.13;;;6.80;99.90;;;;;;4955135;29;20070;-72
2023/04/27 03:39:36;;;;;;;6.22;4.28;;;6.80;99.90;;;;;;4954699;29;20058;-72
2023/04/27 03:42:02;;;;;;;7.88;4.70;;;6.80;99.90;;;;;;4954517;29;20110;-73
2023/04/27 03:44:30;;;;;;;7.07;4.55;;;6.80;99.90;;;;;;4953650;29;20030;-71
2023/04/27 03:46:56;;;;;;;8.73;4.60;;;6.80;99.90;;;;;;4950991;29;20027;-72
2023/04/27 03:49:21;;;;;;;10.48;4.60;;;6.80;99.90;;;;;;4950950;29;20039;-72
2023/04/27 03:51:47;;;;;;;7.57;4.53;;;6.80;99.90;;;;;;4953275;29;20113;-71
2023/04/27 03:54:13;;;;;;;8.13;4.72;;;6.90;99.90;;;;;;4951344;29;20031;-74
2023/04/27 03:56:39;;;;;;;8.68;4.80;;;6.90;99.90;;;;;;4952910;29;20066;-72
2023/04/27 03:59:05;;;;;;;5.80;3.90;;;6.90;99.90;;;;;;4952007;29;20086;-72
2023/04/27 04:01:32;;;;;;;9.35;4.95;;;6.90;99.90;;;;;;4950497;29;20035;-73
2023/04/27 04:03:57;;;;;;;6.65;3.88;;;6.90;99.90;;;;;;4948163;29;20043;-73
2023/04/27 04:06:23;;;;;;;9.57;4.70;;;6.90;99.90;;;;;;4934173;29;20391;-71
2023/04/27 04:08:49;;;;;;;5.30;4.20;;;6.80;99.90;;;;;;4953291;29;20031;-70
2023/04/27 04:11:14;;;;;;;8.20;4.63;;;6.80;99.90;;;;;;4950141;29;20027;-75
2023/04/27 04:13:40;;;;;;;10.35;4.78;;;6.80;99.90;;;;;;4949643;29;20035;-70
2023/04/27 04:16:08;;;;;;;7.93;4.60;;;6.80;99.90;;;;;;4952518;28;20063;-71
2023/04/27 04:18:35;;;;;;;6.38;4.28;;;6.90;99.90;;;;;;4951948;29;20086;-73
2023/04/27 04:21:00;;;;;;;10.10;4.82;;;6.80;99.90;;;;;;4953347;29;20385;-72
2023/04/27 04:23:26;;;;;;;8.65;4.68;;;6.90;99.90;;;;;;4951173;29;20043;-73
2023/04/27 04:25:53;;;;;;;7.72;5.15;;;6.90;99.90;;;;;;4952846;29;20089;-72
2023/04/27 04:28:18;;;;;;;7.65;4.40;;;6.90;99.90;;;;;;4950813;29;20495;-72
2023/04/27 04:30:44;;;;;;;6.13;4.07;;;6.90;99.90;;;;;;4949122;29;20023;-72
2023/04/27 04:33:10;;;;;;;9.18;4.82;;;6.90;99.90;;;;;;4951715;29;20746;-72
2023/04/27 04:35:40;;;;;;;8.07;4.88;;;7.00;99.90;;;;;;4949327;29;20027;-72
2023/04/27 04:38:06;;;;;;;6.90;4.73;;;7.00;99.90;;;;;;4951412;29;20042;-73
2023/04/27 04:40:31;;;;;;;8.05;4.63;;;7.00;99.90;;;;;;4950058;29;20047;-73
2023/04/27 04:42:57;;;;;;;5.60;4.55;;;7.00;99.90;;;;;;4950660;29;20038;-72
2023/04/27 04:45:23;;;;;;;8.73;4.80;;;7.00;99.90;;;;;;4933397;29;20470;-71
2023/04/27 04:47:48;;;;;;;8.77;4.80;;;7.10;99.90;;;;;;4932735;29;20063;-70
2023/04/27 04:50:14;;;;;;;9.40;5.22;;;7.10;99.90;;;;;;4950350;29;20031;-73
2023/04/27 04:52:40;;;;;;;6.55;4.32;;;7.10;99.90;;;;;;4949725;29;20670;-71
2023/04/27 04:55:06;;;;;;;7.22;4.32;;;7.10;99.90;;;;;;4950759;29;20038;-70
2023/04/27 04:57:31;;;;;;;9.82;4.82;;;7.20;99.90;;;;;;4951146;29;20035;-71
2023/04/27 04:59:57;;;;;;;8.55;5.05;;;7.20;99.90;;;;;;4952596;29;20027;-71
2023/04/27 05:02:23;;;;;;;6.85;5.13;;;7.30;99.90;;;;;;4952406;29;20114;-70
2023/04/27 05:04:50;;;;;;;7.00;4.93;;;7.30;99.90;;;;;;4935776;29;20043;-70
2023/04/27 05:07:16;;;;;;;10.48;4.78;;;7.40;99.90;;;;;;4952373;29;20061;-74
2023/04/27 05:09:42;;;;;;;8.63;5.10;;;7.40;99.90;;;;;;4953636;29;20076;-70
2023/04/27 05:12:07;;;;;;;6.30;4.03;;;7.50;99.90;;;;;;4953121;29;20476;-71
2023/04/27 05:14:33;;;;;;;10.30;5.05;;;7.50;99.90;;;;;;4953167;29;20090;-73
2023/04/27 05:16:59;;;;;;;7.97;5.10;;;7.60;99.90;;;;;;4953088;29;20031;-73
2023/04/27 05:19:27;;;;;;;8.43;5.07;;;7.70;99.90;;;;;;4948930;29;20059;-71
2023/04/27 05:21:53;;;;;;;8.85;5.18;;;7.70;99.90;;;;;;4952128;29;20201;-72
2023/04/27 05:24:18;;;;;;;10.63;5.60;;;7.80;99.90;;;;;;4951467;29;20102;-72
2023/04/27 05:26:44;;;;;;;12.90;7.03;;;7.90;99.90;;;;;;4952631;28;20480;-72
2023/04/27 05:29:10;;;;;;;10.95;6.13;;;8.00;99.90;;;;;;4952320;29;20102;-72
2023/04/27 05:31:35;;;;;;;8.52;5.75;;;8.10;99.90;;;;;;4952134;29;20024;-73
2023/04/27 05:34:01;;;;;;;7.75;5.47;;;8.20;99.90;;;;;;4948381;29;20089;-72
2023/04/27 05:36:27;;;;;;;9.63;5.85;;;8.20;99.90;;;;;;4951552;29;20037;-73
2023/04/27 05:38:53;;;;;;;11.73;6.10;;;8.30;99.90;;;;;;4953616;29;20090;-73
2023/04/27 05:41:19;;;;;;;7.78;5.68;;;8.40;99.90;;;;;;4951846;29;20033;-74
2023/04/27 05:43:45;;;;;;;10.30;6.05;;;8.40;99.90;;;;;;4934611;29;20089;-71
2023/04/27 05:46:14;;;;;;;9.02;5.90;;;8.50;99.90;;;;;;4952603;29;20043;-73
2023/04/27 05:48:40;;;;;;;9.43;5.97;;;8.60;99.90;;;;;;4952235;29;20150;-73
2023/04/27 05:51:05;;;;;;;11.13;6.10;;;8.70;99.90;;;;;;4952386;29;20039;-72
2023/04/27 05:53:32;;;;;;;7.78;5.57;;;8.80;99.90;;;;;;4952068;29;20031;-73
2023/04/27 05:55:59;;;;;;;11.90;5.95;;;8.90;99.90;;;;;;4952025;29;20027;-73
2023/04/27 05:58:25;;;;;;;9.45;5.72;;;9.00;99.90;;;;;;4950904;29;20031;-73
2023/04/27 06:00:53;;;;;;;9.48;5.80;;;9.10;99.90;;;;;;4952234;29;20035;-72
2023/04/27 06:03:19;;;;;;;11.23;6.25;;;9.30;99.90;;;;;;4951631;29;20065;-72
2023/04/27 06:05:44;;;;;;;10.57;5.80;;;9.50;99.90;;;;;;4952655;29;20031;-72
2023/04/27 06:08:11;;;;;;;14.65;8.05;;;9.50;99.90;;;;;;4952354;29;20150;-72
2023/04/27 06:10:37;;;;;;;12.15;6.15;;;9.60;99.90;;;;;;4934856;29;20814;-72
2023/04/27 06:13:03;;;;;;;8.95;6.32;;;9.70;99.90;;;;;;4952402;29;20023;-73
2023/04/27 06:15:28;;;;;;;9.38;5.97;;;9.80;99.90;;;;;;4954991;29;20503;-72
2023/04/27 06:17:55;;;;;;;13.63;7.07;;;9.90;99.90;;;;;;4949172;29;20071;-73
2023/04/27 06:20:20;;;;;;;9.38;6.07;;;9.90;99.90;;;;;;4951662;29;20469;-73
2023/04/27 06:22:46;;;;;;;9.25;5.40;;;9.90;99.90;;;;;;4948640;29;20053;-74
2023/04/27 06:25:12;;;;;;;13.13;6.13;;;10.00;99.90;;;;;;4953016;29;20405;-73
2023/04/27 06:27:37;;;;;;;8.18;6.20;;;10.00;99.90;;;;;;4951552;29;20384;-73
2023/04/27 06:30:03;;;;;;;11.43;6.93;;;10.10;99.90;;;;;;4952412;29;20067;-73
2023/04/27 06:32:29;;;;;;;13.88;6.70;;;10.10;99.90;;;;;;4950891;29;20039;-73
2023/04/27 06:34:55;;;;;;;10.30;5.30;;;10.20;99.90;;;;;;4952560;29;20031;-74
2023/04/27 06:37:21;;;;;;;10.65;6.03;;;10.30;99.90;;;;;;4951277;29;20035;-73
2023/04/27 06:39:46;;;;;;;12.25;6.90;;;10.30;99.90;;;;;;4949798;29;20058;-73
2023/04/27 06:42:12;;;;;;;8.85;5.78;;;10.40;99.90;;;;;;4956151;29;20130;-74
2023/04/27 06:44:38;;;;;;;9.15;6.20;;;10.40;99.90;;;;;;4955981;29;20027;-71
2023/04/27 06:47:04;;;;;;;9.65;5.63;;;10.40;99.90;;;;;;4955807;29;20082;-72
2023/04/27 06:49:29;;;;;;;9.30;6.28;;;10.50;99.90;;;;;;4955193;29;20039;-72
2023/04/27 06:51:55;;;;;;;10.82;6.13;;;10.60;99.90;;;;;;4955735;29;20083;-72
2023/04/27 06:54:21;;;;;;;9.73;5.72;;;10.80;99.90;;;;;;4955880;29;20091;-74
2023/04/27 06:56:46;;;;;;;9.40;6.00;;;10.90;99.90;;;;;;4948488;28;20043;-74
2023/04/27 06:59:12;;;;;;;13.40;6.70;;;11.00;99.90;;;;;;4956249;29;20027;-73
2023/04/27 07:01:38;;;;;;;10.48;6.30;;;11.10;99.90;;;;;;4954702;29;20803;-74
2023/04/27 07:04:04;;;;;;;10.50;5.80;;;11.20;99.90;;;;;;4942003;29;20563;-73
2023/04/27 07:06:30;;;;;;;12.57;6.60;;;11.30;99.90;;;;;;4955251;29;20423;-73
2023/04/27 07:08:56;;;;;;;12.98;6.22;;;11.40;99.90;;;;;;4957111;29;20035;-73
2023/04/27 07:11:22;;;;;;;10.13;5.85;;;11.60;99.90;;;;;;4955776;29;20027;-74
2023/04/27 07:13:48;;;;;;;13.15;6.35;;;11.60;99.90;;;;;;4957063;29;20086;-73
2023/04/27 07:16:14;;;;;;;11.20;6.20;;;11.70;99.90;;;;;;4968604;28;20114;-74
2023/04/27 07:18:40;;;;;;;12.95;6.10;;;11.90;99.90;;;;;;4955284;28;20102;-74
2023/04/27 07:21:06;;;;;;;9.73;5.85;;;12.10;99.90;;;;;;4956504;29;20163;-73
2023/04/27 07:23:31;;;;;;;12.88;6.97;;;12.20;99.90;;;;;;4955045;29;20034;-73
2023/04/27 07:25:57;;;;;;;11.13;6.45;;;12.30;99.90;;;;;;4955938;29;20023;-73
2023/04/27 07:28:24;;;;;;;13.55;7.18;;;12.40;99.90;;;;;;4952521;29;20517;-75
2023/04/27 07:30:49;;;;;;;9.98;6.32;;;12.50;99.90;;;;;;4954505;29;20024;-73
2023/04/27 07:33:15;;;;;;;16.73;6.72;;;12.50;99.90;;;;;;4955087;29;20035;-74
2023/04/27 07:35:41;;;;;;;10.57;5.78;;;12.50;99.90;;;;;;4955554;29;20031;-74
2023/04/27 07:38:07;;;;;;;9.95;5.55;;;12.50;99.90;;;;;;4955670;29;20106;-74
2023/04/27 07:40:33;;;;;;;10.85;5.70;;;12.60;99.90;;;;;;4954717;29;20264;-74
2023/04/27 07:42:59;;;;;;;11.40;5.93;;;12.60;99.90;;;;;;4955734;29;20102;-72
2023/04/27 07:45:32;;;;;;;11.75;5.70;;;12.80;99.90;;;;;;4955022;29;20114;-73
2023/04/27 07:47:59;;;;;;;10.90;5.72;;;12.80;99.90;;;;;;4939976;29;20027;-74
2023/04/27 07:50:25;;;;;;;10.77;5.68;;;12.90;99.90;;;;;;4955101;28;20082;-73
2023/04/27 07:52:52;;;;;;;12.10;6.25;;;;;;;;;;4938280;29;20037;-74
2023/04/27 07:55:18;;;;;;;12.93;5.50;;;;;;;;;;4954941;29;20028;-74
2023/04/27 07:57:45;;;;;;;12.05;6.22;;;;;;;;;;4954829;29;20491;-74
2023/04/27 08:00:12;;;;;;;11.15;5.10;;;;;;;;;;4955906;29;20051;-72
2023/04/27 08:02:38;;;;;;;9.77;5.53;;;;;;;;;;4954833;29;20548;-72
2023/04/27 08:05:04;;;;;;;11.77;5.57;;;;;;;;;;4955346;29;20126;-74
2023/04/27 08:07:31;;;;;;;13.68;5.25;;;;;;;;;;4954249;29;20031;-73
2023/04/27 08:09:57;;;;;;;9.55;4.95;;;;;;;;;;4955205;29;20453;-75
2023/04/27 08:12:23;;;;;;;18.27;5.50;;;;;;;;;;4954311;29;20473;-74
2023/04/27 08:14:49;;;;;;;11.05;4.85;;;;;;;;;;4955472;29;20019;-73
2023/04/27 08:17:16;;;;;;;15.02;5.68;;;14.30;99.90;;;;;;4936985;29;20035;-73
2023/04/27 08:19:41;;;;;;;11.02;5.38;;;14.30;99.90;;;;;;4954919;29;20066;-73
2023/04/27 08:22:07;;;;;;;10.18;5.45;;;14.30;99.90;;;;;;4954657;29;20058;-73
2023/04/27 08:24:33;;;;;;;8.45;4.88;;;14.30;99.90;;;;;;4954667;29;20027;-74
2023/04/27 08:26:58;;;;;;;9.32;5.05;;;14.30;99.90;;;;;;4954549;29;20066;-73
2023/04/27 08:29:24;;;;;;;7.90;5.38;;;14.40;99.90;;;;;;4952869;29;20046;-73
2023/04/27 08:31:50;;;;;;;10.40;5.50;;;14.40;99.90;;;;;;4937097;29;20038;-74
2023/04/27 08:34:16;;;;;;;8.30;5.65;;;14.40;99.90;;;;;;4954524;29;20110;-75
2023/04/27 08:36:42;;;;;;;12.18;5.68;;;14.40;99.90;;;;;;4954198;29;20043;-74
2023/04/27 08:39:08;;;;;;;10.85;5.13;;;14.50;99.90;;;;;;4955520;29;20032;-73
2023/04/27 08:41:33;;;;;;;9.13;5.20;;;14.50;99.80;;;;;;4953858;29;20026;-73
2023/04/27 08:43:59;;;;;;;14.27;5.47;;;14.60;99.70;;;;;;4954893;29;20070;-73
2023/04/27 08:46:30;;;;;;;6.65;4.35;;;14.70;99.10;;;;;;4953367;29;20035;-74
2023/04/27 08:48:55;;;;;;;7.93;5.05;;;14.70;98.90;;;;;;4954705;29;20118;-74
2023/04/27 08:51:23;;;;;;;12.82;5.97;;;14.70;98.60;;;;;;4953521;29;20098;-74
2023/04/27 08:53:55;;;;;;;9.43;4.72;;;14.70;99.00;;;;;;4954601;29;20031;-73
2023/04/27 08:56:23;;;;;;;12.15;4.90;;;14.70;98.10;;;;;;4953390;29;20037;-74
2023/04/27 08:58:50;;;;;;;12.88;5.15;;;14.70;97.60;;;;;;4954601;29;20027;-73
2023/04/27 09:01:16;;;;;;;11.02;5.18;;;14.80;97.50;;;;;;4953531;28;20031;-75
2023/04/27 09:03:45;;;;;;;7.15;4.78;;;14.80;97.20;;;;;;4953423;29;20059;-74
2023/04/27 09:06:11;;;;;;;11.15;4.60;;;14.90;97.90;;;;;;4954476;29;20035;-74
2023/04/27 09:08:44;;;;;;;6.65;4.70;;;15.00;96.60;;;;;;4953037;29;20046;-74
2023/04/27 09:11:10;;;;;;;6.60;4.95;;;15.00;96.00;;;;;;4937276;29;20055;-74
2023/04/27 09:13:43;;;;;;;10.95;5.20;;;15.10;97.30;;;;;;4952921;29;20038;-74
2023/04/27 09:16:11;;;;;;;12.05;4.88;;;15.00;96.10;;;;;;4954688;29;20039;-74
2023/04/27 09:18:41;;;;;;;10.27;5.15;;;15.00;95.40;;;;;;4953198;29;20034;-74
2023/04/27 09:21:07;;;;;;;12.40;4.93;;;15.00;94.60;;;;;;4953740;29;20027;-73
2023/04/27 09:23:37;;;;;;;10.77;5.03;;;15.10;95.10;;;;;;4940042;29;20196;-73
2023/04/27 09:26:07;;;;;;;8.38;4.30;;;15.20;95.20;;;;;;4954029;29;20477;-73
2023/04/27 09:28:33;;;;;;;8.85;4.30;;;15.40;95.10;;;;;;4952553;29;20066;-73
2023/04/27 09:31:01;;;;;;;13.45;4.78;;;15.50;93.80;;;;;;4954179;29;20027;-73
2023/04/27 09:33:29;;;;;;;10.40;4.60;;;15.60;94.40;;;;;;4952570;29;20089;-74
2023/04/27 09:35:57;;;;;;;10.25;4.80;;;15.60;93.40;;;;;;4936653;29;20027;-74
2023/04/27 09:38:23;;;;;;;9.75;4.13;;;15.80;93.00;;;;;;4952479;29;20483;-72
2023/04/27 09:40:50;;;;;;;13.52;4.38;;;15.90;93.00;;;;;;4954198;29;20023;-74
2023/04/27 09:43:16;;;;;;;12.15;4.32;;;16.00;92.90;;;;;;4953133;29;20127;-74
2023/04/27 09:45:43;;;;;;;10.25;3.88;;;16.20;93.10;;;;;;4953603;29;20149;-73
2023/04/27 09:48:09;;;;;;;11.73;4.35;;;16.30;91.60;;;;;;4952965;29;20469;-73
2023/04/27 09:50:40;;;;;;;17.27;5.10;;;16.50;91.60;;;;;;4952837;29;20098;-73
2023/04/27 09:53:09;;;;;;;13.48;4.57;;;16.60;91.80;;;;;;4953463;29;20027;-74
2023/04/27 09:56:15;;;;;;;10.73;4.28;;;16.70;90.90;;;;;;4952877;29;20106;-74
2023/04/27 09:59:19;;;;;;;7.68;4.18;;;17.00;90.30;;;;;;4946674;28;20019;-73
2023/04/27 10:01:51;;;;;;;7.20;4.25;;;17.00;88.40;;;;;;4951394;29;20023;-73
2023/04/27 10:04:17;;;;;;;13.25;4.40;;;17.00;90.00;;;;;;4952607;29;20055;-75
2023/04/27 10:06:46;;;;;;;10.20;4.70;;;17.00;92.90;;;;;;4953112;29;20074;-72
2023/04/27 10:09:13;;;;;;;8.83;4.67;;;17.00;93.30;;;;;;4953537;29;20137;-73
2023/04/27 10:11:40;;;;;;;9.15;4.25;;;17.00;93.20;;;;;;4955922;29;20030;-74
2023/04/27 10:14:08;;;;;;;8.15;3.83;;;16.90;93.40;;;;;;4958085;29;20437;-72
2023/04/27 10:16:49;;;;;;;9.48;4.47;;;16.90;93.10;;;;;;4934701;29;20585;-74
2023/04/27 10:19:15;;;;;;;12.65;4.80;;;17.00;93.20;;;;;;4952930;29;20086;-75
2023/04/27 10:22:07;;;;;;;10.02;4.85;;;17.30;92.70;;;;;;4952512;29;20456;-72
2023/04/27 10:24:37;;;;;;;11.13;3.90;;;17.30;93.30;;;;;;4962845;29;20035;-72
2023/04/27 10:27:08;;;;;;;13.50;4.55;;;17.20;97.80;;;;;;4963387;29;20027;-72
2023/04/27 10:29:44;;;;;;;10.00;5.47;;;17.20;98.00;;;;;;4955858;29;20027;-73
2023/04/27 10:32:24;;;;;;;9.93;4.53;;;17.30;99.90;;;;;;4957956;29;20066;-72
2023/04/27 10:35:01;;;;;;;10.32;4.57;;;17.40;99.90;;;;;;4940550;29;20035;-72
2023/04/27 10:37:41;;;;;;;9.85;4.22;;;17.20;99.90;;;;;;4966516;29;20099;-72
2023/04/27 10:40:13;;;;;;;5.30;3.30;;;17.10;99.90;;;;;;4947588;29;20035;-72
2023/04/27 10:42:48;;;;;;;6.70;4.43;;;17.10;99.70;;;;;;4961157;29;20149;-72
2023/04/27 10:45:18;;;;;;;7.90;4.60;;;;;;;;;;4962245;29;20063;-74
2023/04/27 10:47:45;;;;;;;9.48;4.57;;;;;;;;;;4953118;29;20102;-73
2023/04/27 10:50:12;;;;;;;8.35;4.72;;;;;;;;;;4953488;29;20028;-71
2023/04/27 10:52:45;;;;;;;9.38;4.95;;;;;;;;;;4951912;29;20024;-72
2023/04/27 10:55:18;;;;;;;6.13;4.45;;;;;;;;;;4954179;29;20027;-72
2023/04/27 10:57:48;;;;;;;12.55;5.07;;;;;;;;;;4955104;29;20055;-71
2023/04/27 11:00:16;;;;;;;6.43;4.57;;;;;;;;;;4954913;29;20019;-74
2023/04/27 11:02:42;;;;;;;10.30;4.72;;;;;;;;;;4929184;29;20053;-73
2023/04/27 11:05:23;;;;;;;12.98;4.43;;;;;;;;;;4955453;29;20556;-71
2023/04/27 11:07:49;;;;;;;10.73;5.65;;;;;;;;;;4956226;29;20102;-73
2023/04/27 11:10:16;;;;;;;9.82;4.82;;;;;;;;;;4956981;29;20023;-74
2023/04/27 11:12:42;;;;;;;9.48;4.15;;;;;;;;;;4957725;29;20027;-72
2023/04/27 11:15:08;;;;;;;9.10;4.47;;;;;;;;;;4937751;29;20483;-73
2023/04/27 11:17:34;;;;;;;8.93;4.20;;;;;;;;;;4952035;29;20102;-73
2023/04/27 11:20:00;;;;;;;7.90;4.70;;;18.90;76.80;;;;;;4953717;29;20023;-72
2023/04/27 11:22:26;;;;;;;8.70;4.35;;;18.90;77.40;;;;;;4951556;29;20035;-72
2023/04/27 11:24:52;;;;;;;8.68;3.75;;;19.00;77.00;;;;;;4952987;28;20023;-72
2023/04/27 11:27:20;;;;;;;8.55;4.00;;;19.10;76.50;;;;;;4953922;29;20031;-73
2023/04/27 11:29:46;;;;;;;9.32;4.55;;;19.20;74.10;;;;;;4955759;29;20059;-73
2023/04/27 11:32:19;;;;;;;6.35;4.35;;;19.10;75.00;;;;;;4955868;29;20113;-73
2023/04/27 11:34:49;;;;;;;8.57;4.80;;;18.90;74.70;;;;;;4955949;29;20156;-72
2023/04/27 11:37:22;;;;;;;10.57;4.80;;;19.00;74.50;;;;;;4954930;29;20043;-75
2023/04/27 11:39:48;;;;;;;10.55;4.80;;;19.20;74.80;;;;;;4955488;29;20039;-72
2023/04/27 11:42:23;;;;;;;8.73;5.22;;;19.00;74.20;;;;;;4955442;29;20031;-75
2023/04/27 11:44:53;;;;;;;10.63;4.10;;;18.80;74.60;;;;;;4955983;29;20122;-73
2023/04/27 11:47:21;;;;;;;9.00;4.50;;;18.80;74.90;;;;;;4954486;29;20050;-72
2023/04/27 11:49:51;;;;;;;7.45;4.55;;;18.90;74.70;;;;;;4955785;29;20038;-73
2023/04/27 11:52:17;;;;;;;9.98;4.55;;;19.00;74.10;;;;;;4955057;29;20027;-73
2023/04/27 11:54:51;;;;;;;11.32;4.75;;;19.00;74.20;;;;;;4955617;29;20027;-72
2023/04/27 11:57:23;;;;;;;7.32;4.00;;;19.00;74.10;;;;;;4954520;29;20035;-75
2023/04/27 11:59:49;;;;;;;13.07;4.75;;;19.20;74.30;;;;;;4955794;29;20035;-74
2023/04/27 12:02:15;;;;;;;6.40;4.32;;;19.60;73.60;;;;;;4954974;29;20039;-73
2023/04/27 12:04:41;;;;;;;7.40;4.00;;;19.80;71.60;;;;;;4955088;29;20117;-72
2023/04/27 12:07:07;;;;;;;12.40;4.63;;;19.80;72.10;;;;;;4954583;29;20042;-72
2023/04/27 12:09:33;;;;;;;12.02;4.55;;;19.80;72.90;;;;;;4956320;29;20445;-73
2023/04/27 12:11:59;;;;;;;8.93;4.63;;;19.70;71.80;;;;;;4954594;29;20066;-72
2023/04/27 12:14:24;;;;;;;14.15;4.82;;;19.70;71.70;;;;;;4954775;29;20106;-72
2023/04/27 12:16:50;;;;;;;6.07;4.30;;;19.90;71.50;;;;;;4954527;29;20063;-72
2023/04/27 12:19:16;;;;;;;10.35;4.60;;;20.10;93.50;;;;;;4946085;29;20062;-73
2023/04/27 12:21:42;;;;;;;8.52;4.50;;;19.90;93.00;;;;;;4952186;29;20030;-71
2023/04/27 12:24:07;;;;;;;8.35;4.32;;;20.00;93.10;;;;;;4955106;29;20484;-73
2023/04/27 12:26:33;;;;;;;6.90;4.45;;;20.40;92.20;;;;;;4953630;29;20039;-72
2023/04/27 12:29:01;;;;;;;9.15;5.10;;;;;;;;;;4954170;29;20035;-73
2023/04/27 12:31:30;;;;;;;7.45;4.25;;;;;;;;;;4953104;29;20488;-72
2023/04/27 12:33:58;;;;;;;7.38;4.53;;;;;;;;;;4954033;29;20054;-72
2023/04/27 12:36:44;;;;;;;9.30;4.60;;;;;;;;;;4952598;28;20098;-71
2023/04/27 12:39:17;;;;;;;7.43;4.30;;;22.10;95.90;;;;;;4955344;29;20090;-71
2023/04/27 12:41:44;;;;;;;7.10;3.92;;;;;;;;;;4953992;29;20082;-71
2023/04/27 12:44:11;;;;;;;9.48;4.18;;;;;;;;;;4955069;29;20027;-72
2023/04/27 12:46:37;;;;;;;9.07;4.20;;;;;;;;;;4953153;29;20042;-72
2023/04/27 12:49:05;;;;;;;8.82;4.80;;;;;;;;;;4954740;29;20031;-72
2023/04/27 12:51:32;;;;;;;9.63;4.50;;;;;;;;;;4953504;29;20031;-73
2023/04/27 12:53:58;;;;;;;9.57;5.05;;;;;;;;;;4954331;29;20016;-72
2023/04/27 12:56:24;;;;;;;9.93;5.18;;;;;;;;;;4935845;29;20027;-71
2023/04/27 12:58:50;;;;;;;7.85;4.40;;;;;;;;;;4954634;29;20023;-72
2023/04/27 13:01:16;;;;;;;7.85;5.43;;;;;;;;;;4953959;29;20034;-75
2023/04/27 13:03:42;;;;;;;13.35;5.40;;;;;;;;;;4953244;29;20059;-73
2023/04/27 13:06:08;;;;;;;9.00;4.97;;;;;;;;;;4954203;29;20037;-72
2023/04/27 13:08:35;;;;;;;8.95;4.88;;;;;;;;;;4953694;29;20540;-71
2023/04/27 13:11:01;;;;;;;4.03;3.63;;;;;;;;;;4953784;29;20197;-72
2023/04/27 13:13:27;;;;;;;11.40;5.22;;;;;;;;;;4953129;29;20051;-72
2023/04/27 13:15:53;;;;;;;11.15;4.75;;;;;;;;;;4953918;29;20054;-73